createdAt,value
2022-10-16T00:01:16.419Z,99274.66
2022-10-16T00:03:44.109Z,99270.31
2022-10-16T00:06:11.606Z,99277.69
2022-10-16T00:08:38.645Z,99268.13
2022-10-16T00:11:10.058Z,99263.78
2022-10-16T00:13:38.110Z,99260.41
2022-10-16T00:16:05.093Z,99279.38
2022-10-16T00:18:31.928Z,99272.75
2022-10-16T00:21:09.275Z,99282.03
2022-10-16T00:23:36.746Z,99282.03
2022-10-16T00:26:06.225Z,99278.75
2022-10-16T00:28:33.084Z,99268.81
2022-10-16T00:30:59.822Z,99270.34
2022-10-16T00:33:26.198Z,99284.34
2022-10-16T00:35:52.618Z,99272.50
2022-10-16T00:38:19.026Z,99271.63
2022-10-16T00:40:45.473Z,99283.19
2022-10-16T00:43:34.866Z,99272.47
2022-10-16T00:46:03.207Z,99283.41
2022-10-16T00:48:30.054Z,99290.09
2022-10-16T00:50:57.740Z,99292.06
2022-10-16T00:53:26.088Z,99290.09
2022-10-16T00:55:52.992Z,99299.88
2022-10-16T00:58:19.413Z,99287.03
2022-10-16T01:00:45.844Z,99281.13
2022-10-16T01:03:30.654Z,99306.25
2022-10-16T01:06:09.257Z,99304.06
2022-10-16T01:09:01.129Z,99318.88
2022-10-16T01:11:42.657Z,99307.06
2022-10-16T01:14:22.877Z,99317.03
2022-10-16T01:17:14.930Z,99297.59
2022-10-16T01:20:05.875Z,99328.34
2022-10-16T01:22:42.137Z,99314.75
2022-10-16T01:25:17.793Z,99300.03
2022-10-16T01:27:46.759Z,99294.56
2022-10-16T01:30:22.293Z,99301.84
2022-10-16T01:33:04.529Z,99297.97
2022-10-16T01:35:37.003Z,99306.03
2022-10-16T01:38:22.189Z,99312.03
2022-10-16T01:40:53.150Z,99297.06
2022-10-16T01:43:28.293Z,99309.16
2022-10-16T01:45:55.722Z,99316.47
2022-10-16T01:48:24.755Z,99303.47
2022-10-16T01:51:07.759Z,99322.59
2022-10-16T01:53:34.576Z,99313.94
2022-10-16T01:56:03.086Z,99305.31
2022-10-16T01:58:35.450Z,99303.00
2022-10-16T02:01:05.282Z,99313.28
2022-10-16T02:03:34.283Z,99305.66
2022-10-16T02:06:00.927Z,99299.19
2022-10-16T02:08:30.530Z,99294.56
2022-10-16T02:10:58.382Z,99317.88
2022-10-16T02:13:32.337Z,99324.88
2022-10-16T02:15:58.792Z,99326.47
2022-10-16T02:18:30.026Z,99330.31
2022-10-16T02:20:59.205Z,99322.69
2022-10-16T02:23:36.840Z,99326.16
2022-10-16T02:26:07.872Z,99315.34
2022-10-16T02:28:45.131Z,99324.50
2022-10-16T02:31:17.324Z,99318.66
2022-10-16T02:33:46.742Z,99327.31
2022-10-16T02:36:13.893Z,99337.31
2022-10-16T02:38:41.216Z,99337.09
2022-10-16T02:41:07.727Z,99346.63
2022-10-16T02:43:34.828Z,99349.28
2022-10-16T02:46:01.662Z,99350.41
2022-10-16T02:48:28.054Z,99365.38
2022-10-16T02:50:54.429Z,99356.88
2022-10-16T02:53:20.843Z,99353.91
2022-10-16T02:55:47.213Z,99362.56
2022-10-16T02:58:13.558Z,99378.34
2022-10-16T03:00:40.148Z,99361.59
2022-10-16T03:03:06.598Z,99356.09
2022-10-16T03:05:32.994Z,99345.97
2022-10-16T03:08:01.554Z,99346.63
2022-10-16T03:10:28.380Z,99350.47
2022-10-16T03:12:54.729Z,99356.63
2022-10-16T03:15:21.167Z,99350.47
2022-10-16T03:17:47.568Z,99353.34
2022-10-16T03:20:14.246Z,99365.66
2022-10-16T03:22:40.633Z,99335.03
2022-10-16T03:25:07.545Z,99320.09
2022-10-16T03:27:33.913Z,99330.56
2022-10-16T03:30:00.277Z,99324.56
2022-10-16T03:32:26.762Z,99317.28
2022-10-16T03:34:55.138Z,99322.59
2022-10-16T03:37:21.532Z,99333.22
2022-10-16T03:39:47.910Z,99343.50
2022-10-16T03:42:14.302Z,99349.56
2022-10-16T03:44:40.678Z,99361.50
2022-10-16T03:47:07.058Z,99360.50
2022-10-16T03:49:33.438Z,99386.56
2022-10-16T03:51:59.814Z,99382.47
2022-10-16T03:54:26.243Z,99363.84
2022-10-16T03:56:52.594Z,99372.75
2022-10-16T03:59:18.979Z,99368.31
2022-10-16T04:01:45.405Z,99373.50
2022-10-16T04:04:11.818Z,99370.47
2022-10-16T04:06:38.309Z,99377.75
2022-10-16T04:09:04.825Z,99389.22
2022-10-16T04:11:31.208Z,99382.53
2022-10-16T04:13:57.560Z,99384.84
2022-10-16T04:16:23.951Z,99383.22
2022-10-16T04:18:50.415Z,99383.38
2022-10-16T04:21:16.839Z,99389.00
2022-10-16T04:23:43.928Z,99391.22
2022-10-16T04:26:11.381Z,99399.63
2022-10-16T04:28:37.895Z,99394.31
2022-10-16T04:31:05.580Z,99401.03
2022-10-16T04:33:32.022Z,99395.69
2022-10-16T04:35:59.821Z,99396.53
2022-10-16T04:38:26.548Z,99404.97
2022-10-16T04:40:53.320Z,99396.59
2022-10-16T04:43:20.461Z,99389.81
2022-10-16T04:45:47.032Z,99399.69
2022-10-16T04:48:13.507Z,99411.78
2022-10-16T04:50:39.927Z,99406.69
2022-10-16T04:53:08.102Z,99393.25
2022-10-16T04:55:34.576Z,99394.63
2022-10-16T04:58:00.972Z,99398.19
2022-10-16T05:00:27.729Z,99401.91
2022-10-16T05:02:54.224Z,99388.47
2022-10-16T05:05:20.799Z,99396.28
2022-10-16T05:07:48.491Z,99407.44
2022-10-16T05:10:14.932Z,99413.53
2022-10-16T05:12:41.347Z,99407.38
2022-10-16T05:15:08.310Z,99406.94
2022-10-16T05:17:34.762Z,99413.22
2022-10-16T05:20:01.208Z,99413.38
2022-10-16T05:22:27.623Z,99423.41
2022-10-16T05:24:54.014Z,99419.97
2022-10-16T05:27:20.948Z,99417.03
2022-10-16T05:29:48.768Z,99427.38
2022-10-16T05:32:16.741Z,99418.41
2022-10-16T05:34:43.519Z,99417.84
2022-10-16T05:37:10.485Z,99422.34
2022-10-16T05:39:37.818Z,99415.28
2022-10-16T05:42:05.167Z,99405.88
2022-10-16T05:44:31.668Z,99400.69
2022-10-16T05:46:58.353Z,99407.53
2022-10-16T05:49:24.823Z,99407.59
2022-10-16T05:51:51.195Z,99415.41
2022-10-16T05:54:17.971Z,99409.13
2022-10-16T05:56:44.430Z,99428.41
2022-10-16T05:59:10.810Z,99433.03
2022-10-16T06:01:37.198Z,99445.78
2022-10-16T06:04:03.946Z,99452.34
2022-10-16T06:06:31.761Z,99438.88
2022-10-16T06:08:58.800Z,99437.59
2022-10-16T06:11:31.120Z,99436.38
2022-10-16T06:13:59.841Z,99448.94
2022-10-16T06:16:27.236Z,99450.91
2022-10-16T06:18:55.237Z,99446.41
2022-10-16T06:21:25.661Z,99442.22
2022-10-16T06:23:53.411Z,99441.78
2022-10-16T06:26:22.346Z,99451.44
2022-10-16T06:28:49.823Z,99449.47
2022-10-16T06:31:17.971Z,99465.00
2022-10-16T06:33:46.517Z,99454.50
2022-10-16T06:36:15.581Z,99464.44
2022-10-16T06:38:42.714Z,99476.75
2022-10-16T06:41:12.367Z,99475.06
2022-10-16T06:43:38.762Z,99470.34
2022-10-16T06:46:08.762Z,99474.09
2022-10-16T06:48:35.506Z,99464.44
2022-10-16T06:53:49.175Z,99461.78
2022-10-16T06:56:27.181Z,99490.03
2022-10-16T06:58:54.723Z,99497.03
2022-10-16T07:01:23.005Z,99496.91
2022-10-16T07:03:49.745Z,99513.81
2022-10-16T07:06:20.309Z,99518.00
2022-10-16T07:08:48.250Z,99524.69
2022-10-16T07:11:17.309Z,99529.75
2022-10-16T07:13:48.153Z,99533.72
2022-10-16T07:16:20.566Z,99544.28
2022-10-16T07:18:49.334Z,99545.59
2022-10-16T07:21:21.424Z,99559.13
2022-10-16T07:23:52.131Z,99554.34
2022-10-16T07:26:18.606Z,99552.94
2022-10-16T07:28:45.400Z,99558.97
2022-10-16T07:31:16.809Z,99557.97
2022-10-16T07:33:45.670Z,99563.53
2022-10-16T07:36:16.351Z,99563.38
2022-10-16T07:38:43.724Z,99558.50
2022-10-16T07:41:12.960Z,99554.88
2022-10-16T07:43:39.821Z,99562.03
2022-10-16T07:46:06.753Z,99572.22
2022-10-16T07:48:35.323Z,99586.75
2022-10-16T07:51:03.772Z,99589.41
2022-10-16T07:53:30.439Z,99581.56
2022-10-16T07:56:05.889Z,99592.06
2022-10-16T07:58:33.390Z,99591.91
2022-10-16T08:01:03.424Z,99599.44
2022-10-16T08:03:29.823Z,99597.09
2022-10-16T08:05:58.448Z,99620.59
2022-10-16T08:08:25.222Z,99617.75
2022-10-16T08:10:51.586Z,99618.75
2022-10-16T08:13:18.011Z,99630.38
2022-10-16T08:15:45.590Z,99623.63
2022-10-16T08:18:13.857Z,99618.28
2022-10-16T08:20:41.219Z,99614.75
2022-10-16T08:23:07.894Z,99611.53
2022-10-16T08:25:38.218Z,99629.00
2022-10-16T08:28:10.162Z,99627.16
2022-10-16T08:30:37.273Z,99624.75
2022-10-16T08:33:04.192Z,99633.78
2022-10-16T08:35:30.867Z,99635.78
2022-10-16T08:37:57.305Z,99624.13
2022-10-16T08:40:31.965Z,99642.91
2022-10-16T08:43:13.148Z,99642.72
2022-10-16T08:45:39.530Z,99642.72
2022-10-16T08:48:21.014Z,99638.41
2022-10-16T08:50:50.411Z,99642.44
2022-10-16T08:53:44.098Z,99653.63
2022-10-16T08:56:10.483Z,99654.75
2022-10-16T08:58:36.982Z,99652.78
2022-10-16T09:01:11.801Z,99659.78
2022-10-16T09:04:15.639Z,99659.63
2022-10-16T09:07:10.502Z,99667.78
2022-10-16T09:10:18.436Z,99679.78
2022-10-16T09:12:54.977Z,99676.31
2022-10-16T09:15:30.537Z,99674.34
2022-10-16T09:18:11.067Z,99664.97
2022-10-16T09:20:50.208Z,99663.81
2022-10-16T09:23:26.594Z,99674.03
2022-10-16T09:25:54.892Z,99677.97
2022-10-16T09:28:21.687Z,99682.84
2022-10-16T09:30:51.772Z,99696.00
2022-10-16T09:33:21.596Z,99693.91
2022-10-16T09:35:53.968Z,99699.47
2022-10-16T09:38:31.750Z,99702.78
2022-10-16T09:41:03.173Z,99705.31
2022-10-16T09:43:39.766Z,99711.34
2022-10-16T09:46:08.938Z,99717.19
2022-10-16T09:48:40.168Z,99712.38
2022-10-16T09:51:17.403Z,99716.03
2022-10-16T09:53:48.127Z,99717.88
2022-10-16T09:56:36.393Z,99726.25
2022-10-16T09:59:28.909Z,99722.59
2022-10-16T10:01:56.101Z,99720.63
2022-10-16T10:04:24.839Z,99722.00
2022-10-16T10:06:59.038Z,99720.38
2022-10-16T10:09:33.802Z,99716.81
2022-10-16T10:14:41.934Z,99722.03
2022-10-16T10:17:20.494Z,99713.91
2022-10-16T10:19:56.087Z,99717.63
2022-10-16T10:22:32.739Z,99720.97
2022-10-16T10:25:30.184Z,99710.69
2022-10-16T10:28:19.585Z,99712.13
2022-10-16T10:30:58.480Z,99705.28
2022-10-16T10:33:37.562Z,99693.47
2022-10-16T10:36:23.619Z,99702.25
2022-10-16T10:38:59.072Z,99700.63
2022-10-16T10:41:58.145Z,99691.69
2022-10-16T10:44:24.476Z,99700.72
2022-10-16T10:47:09.836Z,99700.22
2022-10-16T10:49:39.409Z,99698.38
2022-10-16T10:52:28.971Z,99699.41
2022-10-16T10:55:09.990Z,99703.41
2022-10-16T10:57:50.806Z,99698.03
2022-10-16T11:00:37.545Z,99696.38
2022-10-16T11:03:28.325Z,99697.84
2022-10-16T11:06:05.389Z,99697.34
2022-10-16T11:08:40.783Z,99698.13
2022-10-16T11:11:15.673Z,99693.63
2022-10-16T11:13:56.387Z,99689.75
2022-10-16T11:16:29.543Z,99691.94
2022-10-16T11:19:26.331Z,99687.22
2022-10-16T11:22:20.624Z,99692.06
2022-10-16T11:24:53.386Z,99694.88
2022-10-16T11:27:29.530Z,99683.00
2022-10-16T11:30:02.479Z,99687.72
2022-10-16T11:32:34.913Z,99699.22
2022-10-16T11:35:13.496Z,99703.72
2022-10-16T11:37:45.518Z,99700.75
2022-10-16T11:40:29.660Z,99689.88
2022-10-16T11:43:07.592Z,99698.91
2022-10-16T11:45:43.298Z,99696.53
2022-10-16T11:48:15.446Z,99702.88
2022-10-16T11:50:50.374Z,99696.22
2022-10-16T11:53:45.254Z,99703.91
2022-10-16T11:56:17.925Z,99697.53
2022-10-16T11:59:25.580Z,99703.41
2022-10-16T12:02:00.730Z,99702.75
2022-10-16T12:05:08.634Z,99702.22
2022-10-16T12:07:44.325Z,99696.22
2022-10-16T12:10:23.598Z,99697.59
2022-10-16T12:12:53.006Z,99694.25
2022-10-16T12:15:54.550Z,99692.56
2022-10-16T12:18:25.536Z,99700.44
2022-10-16T12:21:17.332Z,99694.94
2022-10-16T12:23:53.399Z,99696.97
2022-10-16T12:26:28.610Z,99705.66
2022-10-16T12:28:56.563Z,99711.00
2022-10-16T12:31:24.276Z,99701.97
2022-10-16T12:33:59.782Z,99700.94
2022-10-16T12:36:32.956Z,99704.47
2022-10-16T12:39:00.703Z,99713.84
2022-10-16T12:41:32.590Z,99713.69
2022-10-16T12:44:02.207Z,99719.88
2022-10-16T12:46:31.314Z,99723.06
2022-10-16T12:49:14.463Z,99724.41
2022-10-16T12:51:42.450Z,99723.25
2022-10-16T12:54:16.026Z,99725.56
2022-10-16T12:57:07.859Z,99726.44
2022-10-16T12:59:54.342Z,99722.25
2022-10-16T13:02:57.780Z,99721.09
2022-10-16T13:05:53.277Z,99720.94
2022-10-16T13:08:46.771Z,99721.09
2022-10-16T13:11:37.872Z,99724.94
2022-10-16T13:14:26.299Z,99721.25
2022-10-16T13:17:13.976Z,99717.09
2022-10-16T13:19:56.400Z,99713.75
2022-10-16T13:22:35.694Z,99722.44
2022-10-16T13:25:09.012Z,99724.44
2022-10-16T13:27:52.733Z,99717.25
2022-10-16T13:30:29.892Z,99726.25
2022-10-16T13:33:41.633Z,99733.13
2022-10-16T13:36:18.937Z,99728.59
2022-10-16T13:38:45.399Z,99728.44
2022-10-16T13:41:19.184Z,99720.41
2022-10-16T13:43:52.741Z,99722.75
2022-10-16T13:46:24.264Z,99726.94
2022-10-16T13:49:25.968Z,99727.09
2022-10-16T13:52:00.414Z,99731.09
2022-10-16T13:54:29.645Z,99734.94
2022-10-16T13:57:03.525Z,99712.22
2022-10-16T13:59:38.281Z,99721.09
2022-10-16T14:02:37.651Z,99722.91
2022-10-16T14:05:08.937Z,99725.75
2022-10-16T14:07:35.855Z,99732.09
2022-10-16T14:10:08.420Z,99722.06
2022-10-16T14:12:35.839Z,99718.22
2022-10-16T14:15:02.779Z,99736.75
2022-10-16T14:17:34.376Z,99725.06
2022-10-16T14:20:06.654Z,99721.09
2022-10-16T14:22:42.465Z,99723.75
2022-10-16T14:25:21.393Z,99726.44
2022-10-16T14:28:20.519Z,99717.75
2022-10-16T14:30:53.298Z,99721.59
2022-10-16T14:33:34.566Z,99710.91
2022-10-16T14:36:03.500Z,99716.56
2022-10-16T14:38:30.881Z,99720.41
2022-10-16T14:40:59.974Z,99724.06
2022-10-16T14:43:36.609Z,99717.06
2022-10-16T14:46:10.382Z,99725.22
2022-10-16T14:48:37.059Z,99726.88
2022-10-16T14:51:03.589Z,99730.41
2022-10-16T14:53:30.010Z,99721.88
2022-10-16T14:55:56.461Z,99726.34
2022-10-16T14:58:24.177Z,99731.69
2022-10-16T15:00:50.623Z,99729.34
2022-10-16T15:03:17.393Z,99733.69
2022-10-16T15:05:44.897Z,99735.69
2022-10-16T15:08:13.241Z,99741.03
2022-10-16T15:10:43.281Z,99743.69
2022-10-16T15:13:14.746Z,99751.06
2022-10-16T15:15:46.514Z,99749.22
2022-10-16T15:18:15.664Z,99748.53
2022-10-16T15:20:42.541Z,99761.75
2022-10-16T15:23:18.823Z,99755.41
2022-10-16T15:25:46.950Z,99753.72
2022-10-16T15:28:14.849Z,99755.41
2022-10-16T15:30:42.136Z,99762.56
2022-10-16T15:33:17.809Z,99759.06
2022-10-16T15:35:48.042Z,99750.38
2022-10-16T15:38:15.069Z,99756.72
2022-10-16T15:40:42.139Z,99756.56
2022-10-16T15:43:08.602Z,99757.41
2022-10-16T15:45:35.432Z,99761.88
2022-10-16T15:48:01.989Z,99757.53
2022-10-16T15:50:28.515Z,99743.84
2022-10-16T15:52:54.866Z,99746.34
2022-10-16T15:55:21.291Z,99750.88
2022-10-16T15:57:47.698Z,99755.69
2022-10-16T16:00:17.138Z,99759.19
2022-10-16T16:02:44.876Z,99751.31
2022-10-16T16:05:12.132Z,99756.66
2022-10-16T16:07:41.130Z,99747.16
2022-10-16T16:10:11.003Z,99746.47
2022-10-16T16:12:38.476Z,99744.97
2022-10-16T16:15:09.784Z,99753.16
2022-10-16T16:17:37.310Z,99739.94
2022-10-16T16:20:05.519Z,99741.78
2022-10-16T16:22:32.179Z,99741.28
2022-10-16T16:24:58.588Z,99750.13
2022-10-16T16:27:26.246Z,99752.41
2022-10-16T16:29:54.171Z,99755.25
2022-10-16T16:32:20.635Z,99752.59
2022-10-16T16:34:47.183Z,99754.06
2022-10-16T16:37:13.870Z,99760.22
2022-10-16T16:39:40.344Z,99757.56
2022-10-16T16:42:08.336Z,99760.56
2022-10-16T16:44:37.019Z,99760.72
2022-10-16T16:47:04.683Z,99761.06
2022-10-16T16:49:31.264Z,99759.38
2022-10-16T16:51:57.697Z,99765.03
2022-10-16T16:54:24.255Z,99769.84
2022-10-16T16:56:50.689Z,99785.00
2022-10-16T16:59:20.573Z,99790.00
2022-10-16T17:01:48.036Z,99785.78
2022-10-16T17:04:19.772Z,99797.47
2022-10-16T17:06:53.873Z,99794.97
2022-10-16T17:09:20.292Z,99796.13
2022-10-16T17:11:47.607Z,99793.75
2022-10-16T17:14:13.995Z,99801.06
2022-10-16T17:16:44.541Z,99794.22
2022-10-16T17:19:15.453Z,99786.38
2022-10-16T17:21:42.688Z,99799.03
2022-10-16T17:24:10.132Z,99798.88
2022-10-16T17:26:38.342Z,99806.03
2022-10-16T17:29:05.046Z,99802.72
2022-10-16T17:31:36.340Z,99806.03
2022-10-16T17:34:05.554Z,99807.19
2022-10-16T17:36:34.592Z,99800.47
2022-10-16T17:39:04.475Z,99807.81
2022-10-16T17:41:31.713Z,99822.97
2022-10-16T17:43:58.155Z,99810.63
2022-10-16T17:46:25.427Z,99823.63
2022-10-16T17:48:55.588Z,99827.28
2022-10-16T17:51:25.441Z,99820.56
2022-10-16T17:53:54.704Z,99824.94
2022-10-16T17:56:22.147Z,99825.88
2022-10-16T17:58:54.289Z,99826.69
2022-10-16T18:01:24.143Z,99819.56
2022-10-16T18:03:52.503Z,99825.88
2022-10-16T18:06:22.698Z,99815.81
2022-10-16T18:08:50.846Z,99815.50
2022-10-16T18:11:17.373Z,99825.47
2022-10-16T18:13:44.531Z,99838.50
2022-10-16T18:16:12.847Z,99843.44
2022-10-16T18:18:41.046Z,99836.44
2022-10-16T18:21:09.455Z,99846.63
2022-10-16T18:23:36.768Z,99827.09
2022-10-16T18:26:05.348Z,99842.09
2022-10-16T18:28:32.375Z,99848.78
2022-10-16T18:31:06.923Z,99831.72
2022-10-16T18:33:33.716Z,99844.44
2022-10-16T18:36:05.474Z,99841.69
2022-10-16T18:38:32.834Z,99842.66
2022-10-16T18:41:01.827Z,99845.34
2022-10-16T18:43:30.406Z,99849.59
2022-10-16T18:45:58.586Z,99859.69
2022-10-16T18:48:25.624Z,99862.53
2022-10-16T18:50:52.970Z,99857.88
2022-10-16T18:53:19.907Z,99855.50
2022-10-16T18:55:53.241Z,99857.47
2022-10-16T18:58:20.369Z,99855.50
2022-10-16T19:00:47.068Z,99863.78
2022-10-16T19:03:13.577Z,99861.97
2022-10-16T19:05:40.160Z,99862.44
2022-10-16T19:08:06.685Z,99871.53
2022-10-16T19:10:36.953Z,99866.22
2022-10-16T19:13:06.359Z,99866.66
2022-10-16T19:15:42.810Z,99873.56
2022-10-16T19:18:11.080Z,99860.09
2022-10-16T19:20:37.551Z,99865.41
2022-10-16T19:23:04.180Z,99875.25
2022-10-16T19:25:30.766Z,99875.41
2022-10-16T19:27:57.329Z,99875.31
2022-10-16T19:30:25.265Z,99887.66
2022-10-16T19:32:53.010Z,99886.91
2022-10-16T19:35:19.717Z,99887.38
2022-10-16T19:37:50.106Z,99900.81
2022-10-16T19:40:16.691Z,99890.03
2022-10-16T19:42:45.093Z,99893.22
2022-10-16T19:45:12.085Z,99891.00
2022-10-16T19:47:38.773Z,99892.41
2022-10-16T19:50:06.545Z,99890.72
2022-10-16T19:52:33.680Z,99896.06
2022-10-16T19:55:00.135Z,99888.91
2022-10-16T19:57:27.000Z,99889.59
2022-10-16T19:59:54.421Z,99893.66
2022-10-16T20:02:21.388Z,99887.94
2022-10-16T20:04:47.897Z,99884.97
2022-10-16T20:07:15.879Z,99895.91
2022-10-16T20:09:42.472Z,99885.88
2022-10-16T20:12:08.977Z,99892.28
2022-10-16T20:14:35.662Z,99897.16
2022-10-16T20:17:02.342Z,99889.06
2022-10-16T20:19:28.970Z,99892.72
2022-10-16T20:21:55.762Z,99900.53
2022-10-16T20:24:22.363Z,99895.81
2022-10-16T20:26:48.869Z,99889.50
2022-10-16T20:29:15.665Z,99895.09
2022-10-16T20:31:42.234Z,99906.28
2022-10-16T20:34:11.504Z,99903.22
2022-10-16T20:36:42.657Z,99897.22
2022-10-16T20:39:09.059Z,99898.84
2022-10-16T20:41:36.337Z,99900.69
2022-10-16T20:44:03.854Z,99897.50
2022-10-16T20:46:30.493Z,99901.41
2022-10-16T20:49:06.042Z,99903.63
2022-10-16T20:51:38.241Z,99913.00
2022-10-16T20:54:06.319Z,99914.44
2022-10-16T20:56:35.208Z,99914.72
2022-10-16T20:59:02.145Z,99909.97
2022-10-16T21:01:29.841Z,99904.50
2022-10-16T21:04:02.011Z,99905.63
2022-10-16T21:06:29.527Z,99914.88
2022-10-16T21:08:56.231Z,99905.19
2022-10-16T21:11:27.156Z,99909.97
2022-10-16T21:13:56.237Z,99907.44
2022-10-16T21:16:23.511Z,99898.06
2022-10-16T21:18:50.434Z,99904.38
2022-10-16T21:21:26.138Z,99906.50
2022-10-16T21:23:53.102Z,99902.41
2022-10-16T21:26:25.839Z,99898.34
2022-10-16T21:29:00.776Z,99902.69
2022-10-16T21:31:27.744Z,99905.78
2022-10-16T21:33:55.234Z,99896.41
2022-10-16T21:36:26.633Z,99898.66
2022-10-16T21:38:53.709Z,99900.47
2022-10-16T21:41:26.634Z,99895.44
2022-10-16T21:43:54.718Z,99895.16
2022-10-16T21:46:25.139Z,99895.03
2022-10-16T21:48:55.625Z,99899.66
2022-10-16T21:51:27.533Z,99892.09
2022-10-16T21:53:54.730Z,99900.59
2022-10-16T21:56:21.822Z,99896.84
2022-10-16T21:58:48.286Z,99905.38
2022-10-16T22:01:19.945Z,99896.97
2022-10-16T22:03:47.472Z,99902.03
2022-10-16T22:06:16.856Z,99911.25
2022-10-16T22:08:43.894Z,99900.91
2022-10-16T22:11:23.209Z,99905.38
2022-10-16T22:13:54.260Z,99909.28
2022-10-16T22:16:25.427Z,99908.44
2022-10-16T22:18:53.516Z,99908.88
2022-10-16T22:21:20.188Z,99905.75
2022-10-16T22:23:46.806Z,99916.28
2022-10-16T22:26:13.211Z,99911.66
2022-10-16T22:28:40.690Z,99914.31
2022-10-16T22:31:10.051Z,99924.53
2022-10-16T22:33:36.681Z,99918.38
2022-10-16T22:36:05.193Z,99932.25
2022-10-16T22:38:33.381Z,99929.97
2022-10-16T22:41:05.130Z,99926.63
2022-10-16T22:43:34.394Z,99921.31
2022-10-16T22:46:05.814Z,99920.19
2022-10-16T22:48:32.253Z,99923.38
2022-10-16T22:50:58.665Z,99923.97
2022-10-16T22:53:25.076Z,99924.38
2022-10-16T22:55:51.736Z,99924.66
2022-10-16T22:58:18.441Z,99934.31
2022-10-16T23:00:45.348Z,99932.34
2022-10-16T23:03:12.146Z,99930.53
2022-10-16T23:05:40.109Z,99942.72
2022-10-16T23:08:07.127Z,99949.44
2022-10-16T23:10:34.723Z,99939.19
2022-10-16T23:13:01.092Z,99947.63
2022-10-16T23:15:27.473Z,99947.88
2022-10-16T23:17:53.853Z,99949.22
2022-10-16T23:20:20.271Z,99953.72
2022-10-16T23:22:46.754Z,99955.59
2022-10-16T23:25:13.163Z,99950.66
2022-10-16T23:27:39.563Z,99957.53
2022-10-16T23:30:06.866Z,99960.69
2022-10-16T23:32:34.047Z,99957.19
2022-10-16T23:35:00.589Z,99954.53
2022-10-16T23:37:27.110Z,99956.91
2022-10-16T23:39:54.007Z,99953.84
2022-10-16T23:42:20.618Z,99951.84
2022-10-16T23:44:47.225Z,99957.34
2022-10-16T23:47:13.602Z,99958.56
2022-10-16T23:49:39.974Z,99946.91
2022-10-16T23:52:07.114Z,99957.88
2022-10-16T23:54:33.547Z,99961.09
2022-10-16T23:57:00.137Z,99956.22
2022-10-16T23:59:26.538Z,99958.88
